createdAt,value
2023-04-08T00:00:36.960Z,16.55
2023-04-08T00:04:43.706Z,38.75
2023-04-08T00:08:50.736Z,18.05
2023-04-08T00:12:57.551Z,24.35
2023-04-08T00:17:04.330Z,7.85
2023-04-08T00:21:11.117Z,14.30
2023-04-08T00:25:18.069Z,11.57
2023-04-08T00:29:24.761Z,32.42
2023-04-08T00:33:32.476Z,21.17
2023-04-08T00:37:39.246Z,38.08
2023-04-08T00:41:46.030Z,52.13
2023-04-08T00:45:52.811Z,36.58
2023-04-08T00:49:59.620Z,38.00
2023-04-08T00:54:07.290Z,21.70
2023-04-08T00:58:14.489Z,10.13
2023-04-08T01:02:50.990Z,8.47
2023-04-08T01:07:19.934Z,5.15
2023-04-08T01:11:29.031Z,2.80
2023-04-08T01:15:39.108Z,5.00
2023-04-08T01:19:47.824Z,3.87
2023-04-08T01:24:23.376Z,2.50
2023-04-08T01:28:31.488Z,2.33
2023-04-08T01:32:39.412Z,2.47
2023-04-08T01:36:47.094Z,5.67
2023-04-08T01:40:55.620Z,23.10
2023-04-08T01:45:04.664Z,6.95
2023-04-08T01:49:11.962Z,1.93
2023-04-08T01:53:18.714Z,8.33
2023-04-08T01:57:28.575Z,3.07
2023-04-08T02:01:36.397Z,2.17
2023-04-08T02:05:43.129Z,3.10
2023-04-08T02:09:51.006Z,3.20
2023-04-08T02:13:58.393Z,3.53
2023-04-08T02:18:21.042Z,4.50
2023-04-08T02:22:47.956Z,2.00
2023-04-08T02:26:56.552Z,19.63
2023-04-08T02:31:05.722Z,16.10
2023-04-08T02:35:13.218Z,6.80
2023-04-08T02:39:19.945Z,4.77
2023-04-08T02:43:31.721Z,3.13
2023-04-08T02:47:38.502Z,6.27
2023-04-08T02:51:45.338Z,3.67
2023-04-08T02:55:52.160Z,2.43
2023-04-08T02:59:58.990Z,16.17
2023-04-08T03:04:06.147Z,5.67
2023-04-08T03:08:12.898Z,5.03
2023-04-08T03:12:19.551Z,7.13
2023-04-08T03:16:26.677Z,4.00
2023-04-08T03:20:33.404Z,5.00
2023-04-08T03:24:40.625Z,3.93
2023-04-08T03:28:47.594Z,9.03
2023-04-08T03:32:54.738Z,3.57
2023-04-08T03:37:01.772Z,5.20
2023-04-08T03:41:08.557Z,2.97
2023-04-08T03:45:15.257Z,9.27
2023-04-08T03:49:22.052Z,8.50
2023-04-08T03:53:29.432Z,9.00
2023-04-08T03:57:36.122Z,11.57
2023-04-08T04:01:42.850Z,3.93
2023-04-08T04:05:49.718Z,4.17
2023-04-08T04:09:57.128Z,7.57
2023-04-08T04:14:04.227Z,4.83
2023-04-08T04:18:11.177Z,5.67
2023-04-08T04:22:17.963Z,7.37
2023-04-08T04:26:24.655Z,6.60
2023-04-08T04:30:31.317Z,4.47
2023-04-08T04:34:38.040Z,7.10
2023-04-08T04:38:45.341Z,5.10
2023-04-08T04:42:52.005Z,6.37
2023-04-08T04:46:58.637Z,5.43
2023-04-08T04:51:05.685Z,4.43
2023-04-08T04:55:12.408Z,4.83
2023-04-08T04:59:19.124Z,7.83
2023-04-08T05:03:26.105Z,4.50
2023-04-08T05:07:36.615Z,6.20
2023-04-08T05:11:43.384Z,5.00
2023-04-08T05:15:50.185Z,9.77
2023-04-08T05:19:56.915Z,4.07
2023-04-08T05:24:03.678Z,5.63
2023-04-08T05:28:10.638Z,3.50
2023-04-08T05:32:17.269Z,4.73
2023-04-08T05:36:23.946Z,6.80
2023-04-08T05:40:30.808Z,10.67
2023-04-08T05:44:37.539Z,4.90
2023-04-08T05:48:44.233Z,6.73
2023-04-08T05:52:50.878Z,6.63
2023-04-08T05:56:57.541Z,6.60
2023-04-08T06:01:06.372Z,5.67
2023-04-08T06:05:13.129Z,7.70
2023-04-08T06:09:19.769Z,5.87
2023-04-08T06:13:26.474Z,6.30
2023-04-08T06:17:33.170Z,9.73
2023-04-08T06:21:39.912Z,10.10
2023-04-08T06:25:46.593Z,6.37
2023-04-08T06:29:53.425Z,7.20
2023-04-08T06:34:00.431Z,5.63
2023-04-08T06:38:07.277Z,6.40
2023-04-08T06:42:14.004Z,7.20
2023-04-08T06:46:20.925Z,11.37
2023-04-08T06:50:27.739Z,7.30
2023-04-08T06:54:34.382Z,11.33
2023-04-08T06:58:41.219Z,5.87
2023-04-08T07:02:48.009Z,9.50
2023-04-08T07:06:54.866Z,10.30
2023-04-08T07:11:02.477Z,9.05
2023-04-08T07:15:09.723Z,8.57
2023-04-08T07:19:16.380Z,11.93
2023-04-08T07:23:23.228Z,9.40
2023-04-08T07:27:29.961Z,7.70
2023-04-08T07:31:36.641Z,7.78
2023-04-08T07:35:43.345Z,7.70
2023-04-08T07:39:50.008Z,9.00
2023-04-08T07:43:56.696Z,8.30
2023-04-08T07:48:03.414Z,8.25
2023-04-08T07:52:10.165Z,8.80
2023-04-08T07:56:18.550Z,9.93
2023-04-08T08:00:25.610Z,6.13
2023-04-08T08:04:32.712Z,11.88
2023-04-08T08:08:39.562Z,7.35
2023-04-08T08:12:46.251Z,6.60
2023-04-08T08:16:54.336Z,6.88
2023-04-08T08:21:02.074Z,6.82
2023-04-08T08:25:09.852Z,8.73
2023-04-08T08:29:16.527Z,8.52
2023-04-08T08:33:23.264Z,7.15
2023-04-08T08:37:30.102Z,9.98
2023-04-08T08:41:37.764Z,9.63
2023-04-08T08:45:44.693Z,6.00
2023-04-08T08:49:51.547Z,8.68
2023-04-08T08:54:01.843Z,8.32
2023-04-08T08:58:08.741Z,9.02
2023-04-08T09:02:32.053Z,8.80
2023-04-08T09:06:39.453Z,5.97
2023-04-08T09:10:46.105Z,6.60
2023-04-08T09:15:10.011Z,7.38
2023-04-08T09:19:16.792Z,7.28
2023-04-08T09:23:23.441Z,10.73
2023-04-08T09:27:35.585Z,5.50
2023-04-08T09:31:42.455Z,5.00
2023-04-08T09:35:49.461Z,7.35
2023-04-08T09:39:56.856Z,8.38
2023-04-08T09:44:06.548Z,4.80
2023-04-08T09:48:24.032Z,6.43
2023-04-08T09:52:34.306Z,6.47
2023-04-08T09:56:57.197Z,7.13
2023-04-08T10:01:05.355Z,4.63
2023-04-08T10:05:14.552Z,8.70
2023-04-08T10:09:22.927Z,5.70
2023-04-08T10:13:30.062Z,7.07
2023-04-08T10:17:36.935Z,6.13
2023-04-08T10:21:48.064Z,9.05
2023-04-08T10:25:54.695Z,6.28
2023-04-08T10:30:01.724Z,8.30
2023-04-08T10:34:22.985Z,9.25
2023-04-08T10:38:29.640Z,6.45
2023-04-08T10:42:36.293Z,6.22
2023-04-08T10:46:43.664Z,6.18
2023-04-08T10:50:57.481Z,6.28
2023-04-08T10:55:05.977Z,9.65
2023-04-08T10:59:16.356Z,5.07
2023-04-08T11:03:23.416Z,5.53
2023-04-08T11:07:30.254Z,5.53
2023-04-08T11:11:37.886Z,4.20
2023-04-08T11:15:44.672Z,3.88
2023-04-08T11:19:52.729Z,4.40
2023-04-08T11:23:59.403Z,9.43
2023-04-08T11:28:06.648Z,9.90
2023-04-08T11:32:13.434Z,11.38
2023-04-08T11:36:21.866Z,5.53
2023-04-08T11:40:28.773Z,7.32
2023-04-08T11:44:35.642Z,11.23
2023-04-08T11:48:56.613Z,10.23
2023-04-08T11:53:03.577Z,8.52
2023-04-08T11:57:10.575Z,10.85
2023-04-08T12:01:17.458Z,8.93
2023-04-08T12:05:24.195Z,9.25
2023-04-08T12:09:30.842Z,11.10
2023-04-08T12:13:37.484Z,9.15
2023-04-08T12:17:44.808Z,9.07
2023-04-08T12:21:51.622Z,11.10
2023-04-08T12:25:58.392Z,12.48
2023-04-08T12:30:05.506Z,12.23
2023-04-08T12:34:12.375Z,8.93
2023-04-08T12:38:19.071Z,10.45
2023-04-08T12:42:26.400Z,9.77
2023-04-08T12:46:33.349Z,13.18
2023-04-08T12:50:40.094Z,12.27
2023-04-08T12:54:46.985Z,12.30
2023-04-08T12:58:55.868Z,11.50
2023-04-08T13:03:02.657Z,11.07
2023-04-08T13:07:09.350Z,12.63
2023-04-08T13:11:16.065Z,12.43
2023-04-08T13:15:22.847Z,13.82
2023-04-08T13:19:29.514Z,13.32
2023-04-08T13:23:36.865Z,14.07
2023-04-08T13:27:44.731Z,13.30
2023-04-08T13:31:53.491Z,13.57
2023-04-08T13:36:00.310Z,15.25
2023-04-08T13:40:08.933Z,16.85
2023-04-08T13:44:17.085Z,15.68
2023-04-08T13:48:23.745Z,17.83
2023-04-08T13:52:30.564Z,19.23
2023-04-08T13:56:37.385Z,18.85
2023-04-08T14:00:44.039Z,16.63
2023-04-08T14:04:50.840Z,15.90
2023-04-08T14:08:57.573Z,17.02
2023-04-08T14:13:04.304Z,17.98
2023-04-08T14:17:11.243Z,17.15
2023-04-08T14:21:18.717Z,15.45
2023-04-08T14:25:25.767Z,18.60
2023-04-08T14:29:32.583Z,15.32
2023-04-08T14:33:39.734Z,18.70
2023-04-08T14:37:46.984Z,15.63
2023-04-08T14:41:53.725Z,15.07
2023-04-08T14:46:01.321Z,14.10
2023-04-08T14:50:08.508Z,12.43
2023-04-08T14:54:16.849Z,13.48
2023-04-08T14:58:23.616Z,11.77
2023-04-08T15:02:30.470Z,11.55
2023-04-08T15:06:39.002Z,10.30
2023-04-08T15:10:45.779Z,13.63
2023-04-08T15:14:52.813Z,10.88
2023-04-08T15:19:00.380Z,10.32
2023-04-08T15:23:07.866Z,9.52
2023-04-08T15:27:15.904Z,11.07
2023-04-08T15:31:22.786Z,12.68
2023-04-08T15:35:29.663Z,12.25
2023-04-08T15:39:36.559Z,10.13
2023-04-08T15:43:43.483Z,9.98
2023-04-08T15:47:50.485Z,10.55
2023-04-08T15:51:57.367Z,10.40
2023-04-08T15:56:04.361Z,10.05
2023-04-08T16:00:14.383Z,10.52
2023-04-08T16:04:23.508Z,10.73
2023-04-08T16:08:32.070Z,13.63
2023-04-08T16:12:38.747Z,10.60
2023-04-08T16:16:45.493Z,13.27
2023-04-08T16:20:52.233Z,9.65
2023-04-08T16:24:58.910Z,11.32
2023-04-08T16:29:06.020Z,9.60
2023-04-08T16:33:12.668Z,13.25
2023-04-08T16:37:19.392Z,11.65
2023-04-08T16:41:26.053Z,10.88
2023-04-08T16:45:33.208Z,9.85
2023-04-08T16:49:39.860Z,12.50
2023-04-08T16:53:46.477Z,11.73
2023-04-08T16:57:53.173Z,12.98
2023-04-08T17:01:59.889Z,13.27
2023-04-08T17:06:11.905Z,13.05
2023-04-08T17:10:18.931Z,14.75
2023-04-08T17:14:27.365Z,12.10
2023-04-08T17:18:34.343Z,12.63
2023-04-08T17:22:41.181Z,14.93
2023-04-08T17:26:48.094Z,13.68
2023-04-08T17:30:54.745Z,15.30
2023-04-08T17:35:02.885Z,18.00
2023-04-08T17:39:09.573Z,15.15
2023-04-08T17:43:16.414Z,15.82
2023-04-08T17:47:23.149Z,16.10
2023-04-08T17:51:30.955Z,15.30
2023-04-08T17:55:37.728Z,14.77
2023-04-08T17:59:44.482Z,17.50
2023-04-08T18:03:52.055Z,16.00
2023-04-08T18:07:59.278Z,17.48
2023-04-08T18:12:06.712Z,15.88
2023-04-08T18:16:20.797Z,16.40
2023-04-08T18:20:27.559Z,16.73
2023-04-08T18:24:34.237Z,21.05
2023-04-08T18:28:41.539Z,21.38
2023-04-08T18:32:48.310Z,16.92
2023-04-08T18:36:54.993Z,16.95
2023-04-08T18:41:02.534Z,21.75
2023-04-08T18:45:09.501Z,19.90
2023-04-08T18:49:16.437Z,18.40
2023-04-08T18:53:23.209Z,24.13
2023-04-08T18:57:29.868Z,20.02
2023-04-08T19:01:38.626Z,22.90
2023-04-08T19:05:45.328Z,24.83
2023-04-08T19:09:58.732Z,23.88
2023-04-08T19:14:07.601Z,23.13
2023-04-08T19:18:14.239Z,27.30
2023-04-08T19:22:20.942Z,24.30
2023-04-08T19:26:27.599Z,23.58
2023-04-08T19:30:38.372Z,24.50
2023-04-08T19:34:45.009Z,22.40
2023-04-08T19:38:51.728Z,27.25
2023-04-08T19:42:58.401Z,24.38
2023-04-08T19:47:05.178Z,27.52
2023-04-08T19:51:16.967Z,25.95
2023-04-08T19:55:23.807Z,25.52
2023-04-08T19:59:30.631Z,27.83
2023-04-08T20:03:37.353Z,25.05
2023-04-08T20:07:45.250Z,27.20
2023-04-08T20:11:52.222Z,27.77
2023-04-08T20:15:59.135Z,32.97
2023-04-08T20:20:06.517Z,28.60
2023-04-08T20:24:13.341Z,32.92
2023-04-08T20:28:20.394Z,34.08
2023-04-08T20:32:27.791Z,37.55
2023-04-08T20:36:34.496Z,34.75
2023-04-08T20:40:44.465Z,35.65
2023-04-08T20:44:51.260Z,34.17
2023-04-08T20:48:58.228Z,34.25
2023-04-08T20:53:04.917Z,34.03
2023-04-08T20:57:11.614Z,35.65
2023-04-08T21:01:18.296Z,36.72
2023-04-08T21:05:25.416Z,40.10
2023-04-08T21:09:32.050Z,39.95
2023-04-08T21:13:38.805Z,34.92
2023-04-08T21:17:45.500Z,37.53
2023-04-08T21:21:52.162Z,37.88
2023-04-08T21:25:58.814Z,41.40
2023-04-08T21:30:06.024Z,38.55
2023-04-08T21:34:13.378Z,35.58
2023-04-08T21:38:20.175Z,40.67
2023-04-08T21:42:27.590Z,39.97
2023-04-08T21:46:34.230Z,33.55
2023-04-08T21:50:41.639Z,38.42
2023-04-08T21:54:50.874Z,42.78
2023-04-08T21:58:57.501Z,42.50
2023-04-08T22:03:05.358Z,44.35
2023-04-08T22:07:12.269Z,39.47
2023-04-08T22:11:19.138Z,36.05
2023-04-08T22:15:25.875Z,36.75
2023-04-08T22:19:32.533Z,38.35
2023-04-08T22:23:39.307Z,43.45
2023-04-08T22:27:46.026Z,45.42
2023-04-08T22:31:52.719Z,43.58
2023-04-08T22:35:59.415Z,39.85
2023-04-08T22:40:06.768Z,40.30
2023-04-08T22:44:13.426Z,42.50
2023-04-08T22:48:20.305Z,40.83
2023-04-08T22:52:26.948Z,40.35
2023-04-08T22:56:33.615Z,42.40
2023-04-08T23:00:40.622Z,43.67
2023-04-08T23:04:47.301Z,50.20
2023-04-08T23:08:54.152Z,40.67
2023-04-08T23:13:00.960Z,41.50
2023-04-08T23:17:07.626Z,38.55
2023-04-08T23:21:14.285Z,39.80
2023-04-08T23:25:20.948Z,41.03
2023-04-08T23:29:27.585Z,45.83
2023-04-08T23:33:34.248Z,41.78
2023-04-08T23:37:40.989Z,40.95
2023-04-08T23:41:47.621Z,35.47
2023-04-08T23:45:54.278Z,34.63
2023-04-08T23:50:01.204Z,34.95
2023-04-08T23:54:07.862Z,37.88
2023-04-08T23:58:14.506Z,36.00
